createdAt,value
2023-05-20T00:02:44.916Z,95306.44
2023-05-20T00:06:27.694Z,95306.31
2023-05-20T00:10:11.143Z,95300.44
2023-05-20T00:13:53.814Z,95299.28
2023-05-20T00:17:37.914Z,95305.81
2023-05-20T00:21:20.703Z,95305.03
2023-05-20T00:25:03.394Z,95298.91
2023-05-20T00:28:48.014Z,95298.91
2023-05-20T00:32:31.002Z,95300.97
2023-05-20T00:36:15.250Z,95306.25
2023-05-20T00:39:57.956Z,95305.44
2023-05-20T00:43:41.369Z,95302.22
2023-05-20T00:47:27.610Z,95297.97
2023-05-20T00:51:11.301Z,95291.28
2023-05-20T00:54:55.491Z,95296.22
2023-05-20T00:58:38.933Z,95307.22
2023-05-20T01:02:21.787Z,95297.69
2023-05-20T01:06:04.797Z,95293.44
2023-05-20T01:09:48.115Z,95283.88
2023-05-20T01:13:34.957Z,95277.78
2023-05-20T01:17:21.082Z,95279.63
2023-05-20T01:21:04.859Z,95284.13
2023-05-20T01:24:49.364Z,95282.72
2023-05-20T01:28:32.117Z,95278.03
2023-05-20T01:32:20.813Z,95274.22
2023-05-20T01:36:03.644Z,95264.69
2023-05-20T01:39:48.342Z,95268.00
2023-05-20T01:43:32.574Z,95278.78
2023-05-20T01:47:15.316Z,95272.91
2023-05-20T01:50:58.032Z,95268.88
2023-05-20T01:54:40.709Z,95273.38
2023-05-20T01:58:23.425Z,95259.56
2023-05-20T02:02:07.608Z,95262.78
2023-05-20T02:05:50.504Z,95263.00
2023-05-20T02:09:33.249Z,95255.09
2023-05-20T02:13:15.933Z,95261.19
2023-05-20T02:16:58.699Z,95263.25
2023-05-20T02:20:42.844Z,95263.91
2023-05-20T02:24:25.811Z,95268.38
2023-05-20T02:28:10.726Z,95270.00
2023-05-20T02:31:53.552Z,95269.41
2023-05-20T02:35:36.608Z,95266.78
2023-05-20T02:39:20.730Z,95255.19
2023-05-20T02:43:04.222Z,95263.09
2023-05-20T02:46:46.975Z,95260.69
2023-05-20T02:50:29.615Z,95264.56
2023-05-20T02:54:12.479Z,95266.63
2023-05-20T02:57:56.799Z,95262.16
2023-05-20T03:01:40.495Z,95264.81
2023-05-20T03:05:23.468Z,95260.53
2023-05-20T03:09:06.257Z,95260.75
2023-05-20T03:12:49.050Z,95251.69
2023-05-20T03:16:35.502Z,95248.41
2023-05-20T03:20:18.727Z,95252.53
2023-05-20T03:24:01.464Z,95253.56
2023-05-20T03:27:44.788Z,95262.28
2023-05-20T03:31:27.551Z,95258.25
2023-05-20T03:35:11.848Z,95260.91
2023-05-20T03:38:54.613Z,95260.69
2023-05-20T03:42:37.410Z,95259.28
2023-05-20T03:46:20.125Z,95259.28
2023-05-20T03:50:02.895Z,95268.00
2023-05-20T03:53:46.919Z,95263.53
2023-05-20T03:57:30.449Z,95278.34
2023-05-20T04:01:14.332Z,95268.81
2023-05-20T04:04:57.856Z,95272.03
2023-05-20T04:08:40.793Z,95265.75
2023-05-20T04:12:26.084Z,95252.53
2023-05-20T04:16:09.007Z,95257.81
2023-05-20T04:19:51.875Z,95251.72
2023-05-20T04:23:34.565Z,95254.59
2023-05-20T04:27:17.334Z,95262.50
2023-05-20T04:31:02.777Z,95256.66
2023-05-20T04:34:46.109Z,95254.22
2023-05-20T04:38:30.134Z,95256.28
2023-05-20T04:42:13.510Z,95246.53
2023-05-20T04:45:56.258Z,95244.06
2023-05-20T04:49:40.405Z,95245.31
2023-05-20T04:53:23.404Z,95251.63
2023-05-20T04:57:06.454Z,95245.31
2023-05-20T05:00:49.229Z,95247.75
2023-05-20T05:04:32.025Z,95250.78
2023-05-20T05:08:17.271Z,95255.03
2023-05-20T05:12:00.000Z,95252.41
2023-05-20T05:15:42.745Z,95242.06
2023-05-20T05:19:25.713Z,95241.03
2023-05-20T05:23:08.771Z,95246.66
2023-05-20T05:26:56.186Z,95235.06
2023-05-20T05:30:38.965Z,95242.78
2023-05-20T05:34:21.684Z,95243.59
2023-05-20T05:38:04.416Z,95249.19
2023-05-20T05:41:47.142Z,95241.53
2023-05-20T05:45:31.398Z,95249.94
2023-05-20T05:49:14.283Z,95248.81
2023-05-20T05:52:57.014Z,95240.56
2023-05-20T05:56:39.861Z,95252.66
2023-05-20T06:00:22.735Z,95253.38
2023-05-20T06:04:07.100Z,95248.88
2023-05-20T06:07:49.851Z,95248.19
2023-05-20T06:11:32.555Z,95255.09
2023-05-20T06:15:15.315Z,95254.06
2023-05-20T06:18:59.205Z,95259.25
2023-05-20T06:22:44.335Z,95252.28
2023-05-20T06:26:27.041Z,95245.84
2023-05-20T06:30:10.397Z,95242.31
2023-05-20T06:33:53.093Z,95241.50
2023-05-20T06:37:35.796Z,95233.59
2023-05-20T06:41:20.150Z,95229.56
2023-05-20T06:45:07.081Z,95235.66
2023-05-20T06:48:49.788Z,95229.72
2023-05-20T06:52:33.820Z,95235.38
2023-05-20T06:56:16.691Z,95233.31
2023-05-20T07:00:00.780Z,95224.09
2023-05-20T07:03:44.353Z,95227.44
2023-05-20T07:07:27.180Z,95218.34
2023-05-20T07:11:10.036Z,95229.03
2023-05-20T07:14:52.735Z,95227.28
2023-05-20T07:18:37.011Z,95227.16
2023-05-20T07:22:19.925Z,95218.75
2023-05-20T07:26:02.680Z,95212.88
2023-05-20T07:29:45.643Z,95213.34
2023-05-20T07:33:29.648Z,95220.25
2023-05-20T07:37:13.761Z,95217.38
2023-05-20T07:40:56.516Z,95209.66
2023-05-20T07:44:40.103Z,95214.97
2023-05-20T07:48:22.916Z,95203.91
2023-05-20T07:52:06.462Z,95208.72
2023-05-20T07:55:50.666Z,95220.38
2023-05-20T07:59:33.419Z,95218.41
2023-05-20T08:03:16.205Z,95224.25
2023-05-20T08:06:59.029Z,95203.97
2023-05-20T08:10:43.951Z,95198.84
2023-05-20T08:14:28.050Z,95198.94
2023-05-20T08:18:11.011Z,95209.97
2023-05-20T08:21:54.410Z,95201.78
2023-05-20T08:25:38.173Z,95201.06
2023-05-20T08:29:20.901Z,95198.66
2023-05-20T08:33:05.145Z,95204.31
2023-05-20T08:36:47.933Z,95191.75
2023-05-20T08:40:30.691Z,95192.16
2023-05-20T08:44:13.659Z,95182.22
2023-05-20T08:47:56.438Z,95183.19
2023-05-20T08:51:42.922Z,95180.38
2023-05-20T08:55:27.024Z,95177.56
2023-05-20T08:59:10.257Z,95186.97
2023-05-20T09:02:53.295Z,95189.31
2023-05-20T09:06:45.416Z,95185.28
2023-05-20T09:10:28.142Z,95191.06
2023-05-20T09:14:10.865Z,95187.34
2023-05-20T09:17:53.675Z,95185.41
2023-05-20T09:21:37.385Z,95190.66
2023-05-20T09:25:34.303Z,95190.00
2023-05-20T09:29:17.240Z,95175.75
2023-05-20T09:33:01.438Z,95179.09
2023-05-20T09:36:45.394Z,95181.28
2023-05-20T09:40:31.366Z,95186.41
2023-05-20T09:44:16.325Z,95180.94
2023-05-20T09:47:59.161Z,95179.13
2023-05-20T09:51:43.157Z,95166.47
2023-05-20T09:55:26.481Z,95154.88
2023-05-20T09:59:11.898Z,95158.16
2023-05-20T10:02:55.033Z,95156.16
2023-05-20T10:07:06.570Z,95150.16
2023-05-20T10:10:53.463Z,95151.78
2023-05-20T10:14:49.246Z,95152.34
2023-05-20T10:18:41.545Z,95146.50
2023-05-20T10:22:29.095Z,95138.50
2023-05-20T10:26:11.903Z,95143.59
2023-05-20T10:29:57.128Z,95140.97
2023-05-20T10:33:44.088Z,95130.09
2023-05-20T10:37:29.060Z,95128.84
2023-05-20T10:41:12.132Z,95119.59
2023-05-20T10:44:56.251Z,95109.00
2023-05-20T10:48:43.992Z,95106.91
2023-05-20T10:52:27.019Z,95106.16
2023-05-20T10:56:22.976Z,95107.00
2023-05-20T11:00:06.692Z,95101.72
2023-05-20T11:03:50.699Z,95106.00
2023-05-20T11:07:34.182Z,95091.66
2023-05-20T11:11:17.207Z,95090.63
2023-05-20T11:15:04.784Z,95089.56
2023-05-20T11:18:49.803Z,95095.16
2023-05-20T11:22:32.633Z,95080.44
2023-05-20T11:26:15.517Z,95076.16
2023-05-20T11:29:58.394Z,95070.25
2023-05-20T11:33:44.738Z,95078.22
2023-05-20T11:37:30.144Z,95069.66
2023-05-20T11:41:12.811Z,95075.50
2023-05-20T11:45:01.448Z,95064.78
2023-05-20T11:48:54.512Z,95069.53
2023-05-20T11:52:37.268Z,95058.28
2023-05-20T11:56:20.026Z,95061.97
2023-05-20T12:00:02.893Z,95054.69
2023-05-20T12:03:45.803Z,95046.34
2023-05-20T12:07:29.959Z,95048.38
2023-05-20T12:11:12.676Z,95038.28
2023-05-20T12:14:55.435Z,95045.38
2023-05-20T12:18:38.069Z,95041.06
2023-05-20T12:22:20.868Z,95043.75
2023-05-20T12:26:05.663Z,95043.75
2023-05-20T12:29:48.377Z,95027.69
2023-05-20T12:33:31.050Z,95016.41
2023-05-20T12:37:13.820Z,95024.38
2023-05-20T12:40:56.639Z,95026.16
2023-05-20T12:44:40.684Z,95037.28
2023-05-20T12:48:23.419Z,95030.44
2023-05-20T12:52:11.924Z,95025.56
2023-05-20T12:56:01.828Z,95030.22
2023-05-20T12:59:46.016Z,95025.53
2023-05-20T13:03:28.697Z,95023.03
2023-05-20T13:07:11.387Z,95024.72
2023-05-20T13:10:54.210Z,95029.09
2023-05-20T13:14:37.418Z,95020.97
2023-05-20T13:18:21.528Z,95013.19
2023-05-20T13:22:04.266Z,95017.03
2023-05-20T13:25:46.950Z,95012.00
2023-05-20T13:29:29.713Z,95003.28
2023-05-20T13:33:12.431Z,94999.09
2023-05-20T13:36:56.565Z,94996.50
2023-05-20T13:40:39.292Z,94989.81
2023-05-20T13:44:22.109Z,94996.69
2023-05-20T13:48:05.712Z,94986.53
2023-05-20T13:51:48.465Z,94985.16
2023-05-20T13:55:32.832Z,94982.25
2023-05-20T13:59:15.569Z,94974.16
2023-05-20T14:03:00.510Z,94974.31
2023-05-20T14:06:43.212Z,94971.25
2023-05-20T14:10:25.925Z,94970.41
2023-05-20T14:14:10.201Z,94963.63
2023-05-20T14:17:52.916Z,94962.72
2023-05-20T14:21:35.648Z,94968.25
2023-05-20T14:25:18.367Z,94958.34
2023-05-20T14:29:01.193Z,94952.66
2023-05-20T14:32:45.438Z,94956.53
2023-05-20T14:36:28.098Z,94950.44
2023-05-20T14:40:14.116Z,94946.97
2023-05-20T14:43:56.771Z,94954.34
2023-05-20T14:47:40.058Z,94947.69
2023-05-20T14:51:24.351Z,94942.88
2023-05-20T14:55:09.200Z,94946.13
2023-05-20T14:58:51.874Z,94943.69
2023-05-20T15:02:34.686Z,94941.75
2023-05-20T15:06:17.452Z,94935.53
2023-05-20T15:10:01.924Z,94946.19
2023-05-20T15:13:46.375Z,94945.19
2023-05-20T15:17:29.182Z,94944.56
2023-05-20T15:21:11.981Z,94939.72
2023-05-20T15:24:54.625Z,94936.47
2023-05-20T15:28:38.629Z,94936.09
2023-05-20T15:32:21.409Z,94936.41
2023-05-20T15:36:04.563Z,94942.97
2023-05-20T15:39:47.234Z,94943.59
2023-05-20T15:43:29.966Z,94944.91
2023-05-20T15:47:14.084Z,94956.66
2023-05-20T15:50:56.862Z,94951.97
2023-05-20T15:54:39.608Z,94937.66
2023-05-20T15:58:22.307Z,94939.56
2023-05-20T16:02:05.168Z,94933.44
2023-05-20T16:05:49.206Z,94940.84
2023-05-20T16:09:31.837Z,94938.88
2023-05-20T16:13:14.560Z,94929.69
2023-05-20T16:16:57.253Z,94937.88
2023-05-20T16:20:39.914Z,94918.31
2023-05-20T16:24:24.041Z,94920.22
2023-05-20T16:28:06.711Z,94918.13
2023-05-20T16:31:49.430Z,94920.50
2023-05-20T16:35:32.110Z,94924.06
2023-05-20T16:39:14.925Z,94930.91
2023-05-20T16:42:58.960Z,94924.28
2023-05-20T16:46:41.701Z,94939.00
2023-05-20T16:50:24.685Z,94942.16
2023-05-20T16:54:08.346Z,94942.19
2023-05-20T16:57:51.126Z,94932.50
2023-05-20T17:01:35.384Z,94929.34
2023-05-20T17:05:18.360Z,94931.78
2023-05-20T17:09:02.822Z,94937.38
2023-05-20T17:12:45.770Z,94943.13
2023-05-20T17:16:28.618Z,94939.97
2023-05-20T17:20:13.780Z,94952.50
2023-05-20T17:23:56.525Z,94943.72
2023-05-20T17:27:41.903Z,94946.16
2023-05-20T17:31:24.581Z,94950.78
2023-05-20T17:35:08.086Z,94959.94
2023-05-20T17:38:52.471Z,94952.53
2023-05-20T17:42:35.185Z,94966.47
2023-05-20T17:46:17.892Z,94968.94
2023-05-20T17:50:02.570Z,94969.72
2023-05-20T17:53:45.706Z,94968.09
2023-05-20T17:57:29.807Z,94969.16
2023-05-20T18:01:12.516Z,94962.19
2023-05-20T18:04:55.225Z,94965.38
2023-05-20T18:08:37.871Z,94967.53
2023-05-20T18:12:20.535Z,94960.91
2023-05-20T18:16:05.054Z,94969.75
2023-05-20T18:19:47.855Z,94969.25
2023-05-20T18:23:30.662Z,94971.38
2023-05-20T18:27:13.431Z,94960.97
2023-05-20T18:30:57.504Z,94965.53
2023-05-20T18:34:41.588Z,94969.59
2023-05-20T18:38:24.662Z,94967.47
2023-05-20T18:42:08.206Z,94967.22
2023-05-20T18:45:52.357Z,94968.34
2023-05-20T18:49:35.115Z,94972.63
2023-05-20T18:53:19.269Z,94958.25
2023-05-20T18:57:04.024Z,94962.00
2023-05-20T19:00:46.892Z,94960.94
2023-05-20T19:04:29.698Z,94966.81
2023-05-20T19:08:12.477Z,94962.00
2023-05-20T19:11:58.994Z,94971.09
2023-05-20T19:15:41.952Z,94977.47
2023-05-20T19:19:24.713Z,94981.75
2023-05-20T19:23:07.490Z,94971.59
2023-05-20T19:26:50.247Z,94996.66
2023-05-20T19:30:34.359Z,94992.88
2023-05-20T19:34:17.229Z,94993.13
2023-05-20T19:38:00.150Z,94998.16
2023-05-20T19:41:42.903Z,95010.94
2023-05-20T19:45:25.879Z,95006.69
2023-05-20T19:49:10.060Z,95011.53
2023-05-20T19:52:52.808Z,95012.06
2023-05-20T19:56:35.561Z,95012.03
2023-05-20T20:00:18.861Z,95017.34
2023-05-20T20:04:04.481Z,95006.66
2023-05-20T20:07:49.523Z,95013.53
2023-05-20T20:11:32.232Z,95021.97
2023-05-20T20:15:15.389Z,95005.44
2023-05-20T20:18:58.190Z,95012.34
2023-05-20T20:22:41.289Z,95008.06
2023-05-20T20:26:26.646Z,95015.50
2023-05-20T20:30:10.646Z,95012.25
2023-05-20T20:33:53.481Z,95021.28
2023-05-20T20:37:37.756Z,95016.97
2023-05-20T20:41:23.146Z,95022.53
2023-05-20T20:45:12.302Z,95027.78
2023-05-20T20:48:55.236Z,95030.69
2023-05-20T20:52:38.634Z,95022.13
2023-05-20T20:56:21.355Z,95018.38
2023-05-20T21:00:13.553Z,95027.38
2023-05-20T21:03:58.617Z,95021.44
2023-05-20T21:07:42.646Z,95025.66
2023-05-20T21:11:26.072Z,95023.50
2023-05-20T21:15:12.409Z,95020.81
2023-05-20T21:18:55.133Z,95027.16
2023-05-20T21:22:39.307Z,95015.41
2023-05-20T21:26:22.325Z,95011.63
2023-05-20T21:30:05.599Z,95016.09
2023-05-20T21:33:48.355Z,95019.53
2023-05-20T21:37:31.184Z,95015.22
2023-05-20T21:41:16.614Z,95020.22
2023-05-20T21:44:59.612Z,95015.13
2023-05-20T21:48:44.028Z,95020.94
2023-05-20T21:52:26.864Z,95019.84
2023-05-20T21:56:09.653Z,95012.63
2023-05-20T21:59:53.695Z,95019.25
2023-05-20T22:03:36.885Z,95017.59
2023-05-20T22:07:19.723Z,95019.13
2023-05-20T22:11:05.473Z,95014.78
2023-05-20T22:14:48.463Z,95004.13
2023-05-20T22:18:32.678Z,95007.75
2023-05-20T22:22:15.441Z,95005.03
2023-05-20T22:25:58.233Z,95004.41
2023-05-20T22:29:41.264Z,95004.13
2023-05-20T22:33:24.392Z,94999.56
2023-05-20T22:37:09.466Z,94992.09
2023-05-20T22:40:52.294Z,94987.28
2023-05-20T22:44:37.967Z,94993.06
2023-05-20T22:48:22.912Z,94981.84
2023-05-20T22:52:07.713Z,94986.03
2023-05-20T22:55:51.879Z,94984.13
2023-05-20T22:59:36.576Z,94983.00
2023-05-20T23:03:19.386Z,94977.88
2023-05-20T23:07:02.108Z,94969.28
2023-05-20T23:10:44.806Z,94962.88
2023-05-20T23:14:28.900Z,94972.63
2023-05-20T23:18:12.217Z,94973.91
2023-05-20T23:21:54.993Z,94967.81
2023-05-20T23:25:37.852Z,94964.34
2023-05-20T23:29:21.445Z,94956.41
2023-05-20T23:33:05.653Z,94952.69
2023-05-20T23:36:49.930Z,94962.81
2023-05-20T23:40:32.648Z,94960.97
2023-05-20T23:44:15.795Z,94956.94
2023-05-20T23:48:03.450Z,94951.59
2023-05-20T23:51:47.549Z,94950.47
2023-05-20T23:55:30.300Z,94954.16
2023-05-20T23:59:13.107Z,94944.84
